Terminal Aerodrome Forecast
Issued by NWS

Home | Current Version | Previous Version | Text Only | Print | Product List | Glossary On
Versions: 1 2 3 4 5 6 7 8 9 10 11 12 13 14 15
000
FTUS41 KRNK 300520
TAFBCB
TAF
KBCB 300520Z 3006/0106 21004KT P6SM SCT015 BKN035
      TEMPO 3006/3010 BKN025
     FM301000 VRB03KT 5SM BR BKN020
     FM301300 20004KT P6SM SCT035
     FM301700 19008KT P6SM SCT050=

USA.gov is the U.S. government's official web portal to all federal, state and local government web resources and services.